Wilson Heron — 9HJW9 — position and weather

sailwx.info

Track history (hours):
 
Tides and Currents Weather Stations Pressure Air Temp Water Temp Dewpoint Dewpoint Depression Visibility Wind Speed Wind Dir Waves Ship Positions

Wilson Heron

Last reported at 2015-Jul-28 12:33 UTC. Time now 2015-Jul-28 13:21 UTC.
Position N 37°24' W 009°14'.

Length 91 m; draft 4.2 m.

Type: Cargo ship. MMSI: 249075000.

Date/timePositionNaut miles runAvg speedWind from/ knotsBaromVisibWave heightAir tempDewpointWater temp
2015-Jul-28 12:33N 37°24' W 009°14'8 8.1
2015-Jul-28 11:33N 37°16' W 009°16'8 7.6
2015-Jul-28 10:27N 37°08' W 009°18'15 7.2
2015-Jul-28 08:20N 36°53' W 009°17'6 7.7
2015-Jul-28 07:30N 36°48' W 009°12'46 8.8
2015-Jul-28 02:18N 36°32' W 008°19'810.1
2015-Jul-28 01:33N 36°29' W 008°10'10 9.8
2015-Jul-28 00:33N 36°26' W 007°59'1010.0
2015-Jul-27 23:33N 36°23' W 007°47'1010.1
2015-Jul-27 22:33N 36°20' W 007°35'93 9.8
2015-Jul-27 13:03N 35°57' W 005°44'20 7.3
2015-Jul-27 10:19N 35°55' W 005°19'0 0.3
2015-Jul-27 09:31N 35°55' W 005°19'0 0.0
2015-Jul-27 08:31N 35°55' W 005°19'0 0.0
2015-Jul-27 04:19N 35°55' W 005°19'0 0.0
2015-Jul-27 03:31N 35°55' W 005°19'0 0.1
2015-Jul-27 02:31N 35°55' W 005°20'0 0.0
2015-Jul-27 01:31N 35°55' W 005°20'0 0.0
2015-Jul-27 00:28N 35°55' W 005°20'0 0.0
2015-Jul-26 23:31N 35°55' W 005°20'0 0.0
2015-Jul-26 22:31N 35°55' W 005°20'0 0.0
2015-Jul-26 21:31N 35°55' W 005°20'0 0.0
2015-Jul-26 20:28N 35°55' W 005°20'0 0.1
2015-Jul-26 19:31N 35°55' W 005°20'0 0.0
2015-Jul-26 18:31N 35°55' W 005°20'0 0.0
2015-Jul-26 16:31N 35°55' W 005°19'0 0.1
2015-Jul-26 15:04N 35°55' W 005°20'0 0.0
2015-Jul-26 14:28N 35°55' W 005°20'0 0.0
2015-Jul-26 12:28N 35°55' W 005°20'2 1.7
2015-Jul-26 11:32N 35°54' W 005°18'0 0.0
2015-Jul-26 10:33N 35°54' W 005°18'221 8.8
2015-Jul-25 09:33N 37°14' W 001°03'10 9.7
2015-Jul-25 08:33N 37°21' W 000°53'10 9.7
2015-Jul-25 07:33N 37°27' W 000°44'1110.7
2015-Jul-25 06:33N 37°34' W 000°34'1110.9
2015-Jul-25 05:33N 37°43' W 000°26'10 9.7
2015-Jul-25 04:33N 37°51' W 000°20'10 9.8
2015-Jul-25 03:33N 37°59' W 000°13'10 9.8
2015-Jul-25 02:33N 38°08' W 000°06'10 9.8
2015-Jul-25 01:33N 38°16' E 000°01'10 9.7
2015-Jul-25 00:30N 38°25' E 000°08'9 9.5
2015-Jul-24 23:33N 38°33' E 000°13'10 9.7
2015-Jul-24 22:30N 38°40' E 000°21'8 8.4
2015-Jul-24 21:33N 38°49' E 000°21'1010.2
2015-Jul-24 20:33N 38°58' E 000°15'23 9.9
2015-Jul-24 18:13N 39°19' E 000°02'810.8
2015-Jul-24 17:31N 39°26' W 000°02'1010.5
2015-Jul-24 16:31N 39°35' W 000°08'3 1.6
2015-Jul-24 14:26N 39°37' W 000°11'1 0.0
2015-Jul-23 00:22N 39°37' W 000°09'0 0.0
2015-Jul-22 19:33N 39°37' W 000°09'0 0.0
2015-Jul-22 18:17N 39°37' W 000°09'6 1.9
2015-Jul-22 15:23N 39°32' W 000°07'50 9.9
2015-Jul-22 10:22N 38°49' E 000°25'8 9.8
2015-Jul-22 09:33N 38°42' E 000°29'22 9.7
2015-Jul-22 07:20N 38°24' E 000°13'810.1
2015-Jul-22 06:31N 38°17' E 000°07'3510.2
2015-Jul-22 03:07N 37°49' W 000°18'610.2
2015-Jul-22 02:31N 37°44' W 000°22'1010.2
2015-Jul-22 01:32N 37°35' W 000°29'1010.0
2015-Jul-22 00:33N 37°28' W 000°38'1010.4
2015-Jul-21 23:33N 37°21' W 000°48'1310.2
2015-Jul-21 22:18N 37°13' W 000°60'910.1
2015-Jul-21 21:25N 37°07' W 001°08'9 9.9
2015-Jul-21 20:33N 37°01' W 001°16'1010.1
2015-Jul-21 19:32N 36°55' W 001°26'34410.1
2015-Jul-20 09:19N 36°25' W 008°33'21 9.7
2015-Jul-20 07:11N 36°31' W 008°58'1110.1
2015-Jul-20 06:04N 36°33' W 009°12'17 9.2
2015-Jul-20 04:15N 36°44' W 009°28'8 9.3
2015-Jul-20 03:23N 36°51' W 009°34'2010.4
2015-Jul-20 01:28N 37°10' W 009°40'1310.7
2015-Jul-20 00:17N 37°22' W 009°43'810.5
2015-Jul-19 23:31N 37°30' W 009°45'1010.1
2015-Jul-19 22:33N 37°40' W 009°48'1010.4
2015-Jul-19 21:33N 37°50' W 009°51'1110.4
2015-Jul-19 20:31N 38°00' W 009°54'1010.1
2015-Jul-19 19:33N 38°10' W 009°57'1110.9
2015-Jul-19 18:34N 38°20' W 009°60'1110.5
2015-Jul-19 17:33N 38°30' W 010°03'10 9.9
2015-Jul-19 16:33N 38°40' W 010°06'1010.0
2015-Jul-19 15:33N 38°50' W 010°07'10 9.8
2015-Jul-19 14:33N 38°60' W 010°07'9 9.4
2015-Jul-19 13:33N 39°09' W 010°07'10 9.9
2015-Jul-19 12:33N 39°19' W 010°06'  
Track history (hours):
 
Tides and Currents Weather Stations Pressure Air Temp Water Temp Dewpoint Dewpoint Depression Visibility Wind Speed Wind Dir Waves Ship Positions

Wilson Heron

Last reported at 2015-Jul-28 12:33 UTC. Time now 2015-Jul-28 13:21 UTC.
Position N 37°24' W 009°14'.

Length 91 m; draft 4.2 m.

Type: Cargo ship. MMSI: 249075000.

Date/timePositionNaut miles runAvg speedWind from/ knotsBaromVisibWave heightAir tempDewpointWater temp
2015-Jul-28 12:33N 37°24' W 009°14'8 8.1
2015-Jul-28 11:33N 37°16' W 009°16'8 7.6
2015-Jul-28 10:27N 37°08' W 009°18'15 7.2
2015-Jul-28 08:20N 36°53' W 009°17'6 7.7
2015-Jul-28 07:30N 36°48' W 009°12'46 8.8
2015-Jul-28 02:18N 36°32' W 008°19'810.1
2015-Jul-28 01:33N 36°29' W 008°10'10 9.8
2015-Jul-28 00:33N 36°26' W 007°59'1010.0
2015-Jul-27 23:33N 36°23' W 007°47'1010.1
2015-Jul-27 22:33N 36°20' W 007°35'93 9.8
2015-Jul-27 13:03N 35°57' W 005°44'20 7.3
2015-Jul-27 10:19N 35°55' W 005°19'0 0.3
2015-Jul-27 09:31N 35°55' W 005°19'0 0.0
2015-Jul-27 08:31N 35°55' W 005°19'0 0.0
2015-Jul-27 04:19N 35°55' W 005°19'0 0.0
2015-Jul-27 03:31N 35°55' W 005°19'0 0.1
2015-Jul-27 02:31N 35°55' W 005°20'0 0.0
2015-Jul-27 01:31N 35°55' W 005°20'0 0.0
2015-Jul-27 00:28N 35°55' W 005°20'0 0.0
2015-Jul-26 23:31N 35°55' W 005°20'0 0.0
2015-Jul-26 22:31N 35°55' W 005°20'0 0.0
2015-Jul-26 21:31N 35°55' W 005°20'0 0.0
2015-Jul-26 20:28N 35°55' W 005°20'0 0.1
2015-Jul-26 19:31N 35°55' W 005°20'0 0.0
2015-Jul-26 18:31N 35°55' W 005°20'0 0.0
2015-Jul-26 16:31N 35°55' W 005°19'0 0.1
2015-Jul-26 15:04N 35°55' W 005°20'0 0.0
2015-Jul-26 14:28N 35°55' W 005°20'0 0.0
2015-Jul-26 12:28N 35°55' W 005°20'2 1.7
2015-Jul-26 11:32N 35°54' W 005°18'0 0.0
2015-Jul-26 10:33N 35°54' W 005°18'221 8.8
2015-Jul-25 09:33N 37°14' W 001°03'10 9.7
2015-Jul-25 08:33N 37°21' W 000°53'10 9.7
2015-Jul-25 07:33N 37°27' W 000°44'1110.7
2015-Jul-25 06:33N 37°34' W 000°34'1110.9
2015-Jul-25 05:33N 37°43' W 000°26'10 9.7
2015-Jul-25 04:33N 37°51' W 000°20'10 9.8
2015-Jul-25 03:33N 37°59' W 000°13'10 9.8
2015-Jul-25 02:33N 38°08' W 000°06'10 9.8
2015-Jul-25 01:33N 38°16' E 000°01'10 9.7
2015-Jul-25 00:30N 38°25' E 000°08'9 9.5
2015-Jul-24 23:33N 38°33' E 000°13'10 9.7
2015-Jul-24 22:30N 38°40' E 000°21'8 8.4
2015-Jul-24 21:33N 38°49' E 000°21'1010.2
2015-Jul-24 20:33N 38°58' E 000°15'23 9.9
2015-Jul-24 18:13N 39°19' E 000°02'810.8
2015-Jul-24 17:31N 39°26' W 000°02'1010.5
2015-Jul-24 16:31N 39°35' W 000°08'3 1.6
2015-Jul-24 14:26N 39°37' W 000°11'1 0.0
2015-Jul-23 00:22N 39°37' W 000°09'0 0.0
2015-Jul-22 19:33N 39°37' W 000°09'0 0.0
2015-Jul-22 18:17N 39°37' W 000°09'6 1.9
2015-Jul-22 15:23N 39°32' W 000°07'50 9.9
2015-Jul-22 10:22N 38°49' E 000°25'8 9.8
2015-Jul-22 09:33N 38°42' E 000°29'22 9.7
2015-Jul-22 07:20N 38°24' E 000°13'810.1
2015-Jul-22 06:31N 38°17' E 000°07'3510.2
2015-Jul-22 03:07N 37°49' W 000°18'610.2
2015-Jul-22 02:31N 37°44' W 000°22'1010.2
2015-Jul-22 01:32N 37°35' W 000°29'1010.0
2015-Jul-22 00:33N 37°28' W 000°38'1010.4
2015-Jul-21 23:33N 37°21' W 000°48'1310.2
2015-Jul-21 22:18N 37°13' W 000°60'910.1
2015-Jul-21 21:25N 37°07' W 001°08'9 9.9
2015-Jul-21 20:33N 37°01' W 001°16'1010.1
2015-Jul-21 19:32N 36°55' W 001°26'34410.1
2015-Jul-20 09:19N 36°25' W 008°33'21 9.7
2015-Jul-20 07:11N 36°31' W 008°58'1110.1
2015-Jul-20 06:04N 36°33' W 009°12'17 9.2
2015-Jul-20 04:15N 36°44' W 009°28'8 9.3
2015-Jul-20 03:23N 36°51' W 009°34'2010.4
2015-Jul-20 01:28N 37°10' W 009°40'1310.7
2015-Jul-20 00:17N 37°22' W 009°43'810.5
2015-Jul-19 23:31N 37°30' W 009°45'1010.1
2015-Jul-19 22:33N 37°40' W 009°48'1010.4
2015-Jul-19 21:33N 37°50' W 009°51'1110.4
2015-Jul-19 20:31N 38°00' W 009°54'1010.1
2015-Jul-19 19:33N 38°10' W 009°57'1110.9
2015-Jul-19 18:34N 38°20' W 009°60'1110.5
2015-Jul-19 17:33N 38°30' W 010°03'10 9.9
2015-Jul-19 16:33N 38°40' W 010°06'1010.0
2015-Jul-19 15:33N 38°50' W 010°07'10 9.8
2015-Jul-19 14:33N 38°60' W 010°07'9 9.4
2015-Jul-19 13:33N 39°09' W 010°07'10 9.9
2015-Jul-19 12:33N 39°19' W 010°06'  

Dump ship's entire track history